createdAt,value
2023-03-23T00:01:43.022Z,6.60
2023-03-23T00:04:54.835Z,5.97
2023-03-23T00:08:07.657Z,6.50
2023-03-23T00:11:17.415Z,6.00
2023-03-23T00:14:23.748Z,7.78
2023-03-23T00:17:36.833Z,8.90
2023-03-23T00:20:50.489Z,7.60
2023-03-23T00:24:01.004Z,9.35
2023-03-23T00:27:07.225Z,6.85
2023-03-23T00:30:17.131Z,6.63
2023-03-23T00:33:23.229Z,5.88
2023-03-23T00:36:35.519Z,5.43
2023-03-23T00:39:45.763Z,8.20
2023-03-23T00:42:57.421Z,7.80
2023-03-23T00:46:10.924Z,6.47
2023-03-23T00:49:16.879Z,7.25
2023-03-23T00:52:22.332Z,7.88
2023-03-23T00:55:35.478Z,10.23
2023-03-23T00:58:44.787Z,8.80
2023-03-23T01:01:56.427Z,8.60
2023-03-23T01:05:06.374Z,9.38
2023-03-23T01:08:18.811Z,8.45
2023-03-23T01:11:29.288Z,10.48
2023-03-23T01:14:38.500Z,7.03
2023-03-23T01:17:45.734Z,11.25
2023-03-23T01:20:54.066Z,6.13
2023-03-23T01:24:02.153Z,8.35
2023-03-23T01:27:13.409Z,8.02
2023-03-23T01:30:21.866Z,9.98
2023-03-23T01:33:27.946Z,6.28
2023-03-23T01:36:34.019Z,8.00
2023-03-23T01:39:41.395Z,9.50
2023-03-23T01:42:50.204Z,6.38
2023-03-23T01:45:57.211Z,6.60
2023-03-23T01:49:07.633Z,8.75
2023-03-23T01:52:18.576Z,8.23
2023-03-23T01:55:27.186Z,8.20
2023-03-23T01:58:37.208Z,9.23
2023-03-23T02:01:46.222Z,8.15
2023-03-23T02:04:52.594Z,7.93
2023-03-23T02:08:00.334Z,6.57
2023-03-23T02:11:06.793Z,8.80
2023-03-23T02:14:31.362Z,6.53
2023-03-23T02:17:41.762Z,7.75
2023-03-23T02:21:03.811Z,6.82
2023-03-23T02:24:34.280Z,7.00
2023-03-23T02:28:05.999Z,6.85
2023-03-23T02:31:35.299Z,8.43
2023-03-23T02:34:47.353Z,8.75
2023-03-23T02:37:59.335Z,8.48
2023-03-23T02:41:07.319Z,6.72
2023-03-23T02:44:13.396Z,10.30
2023-03-23T02:47:21.399Z,6.53
2023-03-23T02:50:31.707Z,8.38
2023-03-23T02:53:39.540Z,8.40
2023-03-23T02:56:45.709Z,7.13
2023-03-23T02:59:51.353Z,8.48
2023-03-23T03:03:00.063Z,8.77
2023-03-23T03:06:15.789Z,8.18
2023-03-23T03:09:27.008Z,7.85
2023-03-23T03:12:40.362Z,8.27
2023-03-23T03:15:48.319Z,6.72
2023-03-23T03:18:56.809Z,9.30
2023-03-23T03:22:06.135Z,6.68
2023-03-23T03:25:18.008Z,7.35
2023-03-23T03:28:29.120Z,7.25
2023-03-23T03:31:39.536Z,7.35
2023-03-23T03:34:46.614Z,7.90
2023-03-23T03:38:02.070Z,8.40
2023-03-23T03:41:12.988Z,9.88
2023-03-23T03:44:19.525Z,7.53
2023-03-23T03:47:25.917Z,7.07
2023-03-23T03:50:33.979Z,9.60
2023-03-23T03:53:44.973Z,7.97
2023-03-23T03:56:53.381Z,7.95
2023-03-23T04:00:01.289Z,9.05
2023-03-23T04:03:14.722Z,8.02
2023-03-23T04:06:20.708Z,8.18
2023-03-23T04:09:30.029Z,8.43
2023-03-23T04:12:38.219Z,9.30
2023-03-23T04:15:44.544Z,9.73
2023-03-23T04:19:13.035Z,9.70
2023-03-23T04:22:18.195Z,9.13
2023-03-23T04:25:28.632Z,8.93
2023-03-23T04:28:36.064Z,8.93
2023-03-23T04:31:46.858Z,9.13
2023-03-23T04:34:54.991Z,7.75
2023-03-23T04:38:21.676Z,8.40
2023-03-23T04:41:31.177Z,8.23
2023-03-23T04:44:39.272Z,11.98
2023-03-23T04:47:54.170Z,7.80
2023-03-23T04:51:02.025Z,15.38
2023-03-23T04:54:07.801Z,9.05
2023-03-23T04:57:17.116Z,9.43
2023-03-23T05:00:23.396Z,9.93
2023-03-23T05:03:30.639Z,10.02
2023-03-23T05:06:37.885Z,9.82
2023-03-23T05:09:46.502Z,13.38
2023-03-23T05:12:57.660Z,11.73
2023-03-23T05:16:09.140Z,10.55
2023-03-23T05:19:21.528Z,6.90
2023-03-23T05:22:27.823Z,10.70
2023-03-23T05:25:48.785Z,7.40
2023-03-23T05:28:58.703Z,11.07
2023-03-23T05:32:09.922Z,11.90
2023-03-23T05:35:18.596Z,13.02
2023-03-23T05:38:27.051Z,12.43
2023-03-23T05:41:33.380Z,11.75
2023-03-23T05:44:44.913Z,13.05
2023-03-23T05:48:00.102Z,10.20
2023-03-23T05:51:06.402Z,14.05
2023-03-23T05:54:15.347Z,8.48
2023-03-23T05:57:25.179Z,9.68
2023-03-23T06:00:36.531Z,11.88
2023-03-23T06:03:42.168Z,10.93
2023-03-23T06:06:48.243Z,11.23
2023-03-23T06:09:58.847Z,9.23
2023-03-23T06:13:06.399Z,7.38
2023-03-23T06:16:17.515Z,9.23
2023-03-23T06:19:25.438Z,8.93
2023-03-23T06:22:31.384Z,9.80
2023-03-23T06:25:40.145Z,11.35
2023-03-23T06:28:46.077Z,12.68
2023-03-23T06:31:57.016Z,18.60
2023-03-23T06:35:03.439Z,15.13
2023-03-23T06:38:11.898Z,10.70
2023-03-23T06:41:17.900Z,7.82
2023-03-23T06:44:23.488Z,7.85
2023-03-23T06:47:34.306Z,9.80
2023-03-23T06:50:40.281Z,9.85
2023-03-23T06:53:46.374Z,10.95
2023-03-23T06:56:53.019Z,11.52
2023-03-23T06:59:58.327Z,9.82
2023-03-23T07:03:08.538Z,10.80
2023-03-23T07:06:15.869Z,12.20
2023-03-23T07:09:31.065Z,7.70
2023-03-23T07:12:45.659Z,7.93
2023-03-23T07:15:52.218Z,11.77
2023-03-23T07:19:02.754Z,8.82
2023-03-23T07:22:10.919Z,10.27
2023-03-23T07:25:17.022Z,10.48
2023-03-23T07:28:25.466Z,15.90
2023-03-23T07:31:32.042Z,13.98
2023-03-23T07:34:43.154Z,13.00
2023-03-23T07:37:55.583Z,8.13
2023-03-23T07:41:08.664Z,9.60
2023-03-23T07:44:15.123Z,9.05
2023-03-23T07:47:22.596Z,8.00
2023-03-23T07:50:46.273Z,11.48
2023-03-23T07:53:55.512Z,10.45
2023-03-23T07:57:01.782Z,12.68
2023-03-23T08:00:21.698Z,10.27
2023-03-23T08:03:33.801Z,7.78
2023-03-23T08:06:47.677Z,8.98
2023-03-23T08:09:53.721Z,8.50
2023-03-23T08:13:02.971Z,8.70
2023-03-23T08:16:10.965Z,8.32
2023-03-23T08:19:18.265Z,10.05
2023-03-23T08:22:32.986Z,8.88
2023-03-23T08:25:44.137Z,9.40
2023-03-23T08:28:53.705Z,8.57
2023-03-23T08:32:04.064Z,6.43
2023-03-23T08:35:10.520Z,10.23
2023-03-23T08:38:19.734Z,9.55
2023-03-23T08:41:26.480Z,8.07
2023-03-23T08:44:32.835Z,7.68
2023-03-23T08:50:53.387Z,10.00
2023-03-23T08:54:02.625Z,6.55
2023-03-23T08:57:11.805Z,6.72
2023-03-23T09:00:19.431Z,8.90
2023-03-23T09:03:26.878Z,8.57
2023-03-23T09:06:36.957Z,7.32
2023-03-23T09:09:48.211Z,8.73
2023-03-23T09:12:56.539Z,8.20
2023-03-23T09:16:02.905Z,7.53
2023-03-23T09:19:10.151Z,6.55
2023-03-23T09:22:17.367Z,8.90
2023-03-23T09:25:35.271Z,7.65
2023-03-23T09:28:46.494Z,6.68
2023-03-23T09:32:00.632Z,7.20
2023-03-23T09:35:08.809Z,8.35
2023-03-23T09:41:56.574Z,7.57
2023-03-23T09:45:13.083Z,7.38
2023-03-23T09:48:30.473Z,6.63
2023-03-23T09:51:44.633Z,6.32
2023-03-23T09:54:52.476Z,4.97
2023-03-23T09:58:08.048Z,5.10
2023-03-23T10:01:21.312Z,5.45
2023-03-23T10:04:34.125Z,6.65
2023-03-23T10:07:40.236Z,7.68
2023-03-23T10:10:56.561Z,5.30
2023-03-23T10:14:12.199Z,6.22
2023-03-23T10:17:19.394Z,5.75
2023-03-23T10:20:50.215Z,14.40
2023-03-23T10:24:03.487Z,8.68
2023-03-23T10:27:17.826Z,6.00
2023-03-23T10:30:30.042Z,5.13
2023-03-23T10:33:43.986Z,6.03
2023-03-23T10:36:57.209Z,6.47
2023-03-23T10:40:08.904Z,5.38
2023-03-23T10:46:32.043Z,4.93
2023-03-23T10:49:43.943Z,6.00
2023-03-23T10:52:50.166Z,8.57
2023-03-23T10:55:58.597Z,6.38
2023-03-23T10:59:15.315Z,5.07
2023-03-23T11:02:29.334Z,6.55
2023-03-23T11:05:50.004Z,3.90
2023-03-23T11:08:56.616Z,4.50
2023-03-23T11:12:03.668Z,5.22
2023-03-23T11:15:22.965Z,5.63
2023-03-23T11:18:30.674Z,6.55
2023-03-23T11:21:39.268Z,4.72
2023-03-23T11:24:51.784Z,4.97
2023-03-23T11:27:58.093Z,5.55
2023-03-23T11:31:08.439Z,5.10
2023-03-23T11:34:17.432Z,6.00
2023-03-23T11:37:28.748Z,6.10
2023-03-23T11:40:36.896Z,3.47
2023-03-23T11:43:44.009Z,4.32
2023-03-23T11:46:55.171Z,5.35
2023-03-23T11:50:05.654Z,5.82
2023-03-23T11:53:20.310Z,5.28
2023-03-23T11:56:28.830Z,5.03
2023-03-23T11:59:36.981Z,7.65
2023-03-23T12:02:48.300Z,5.10
2023-03-23T12:05:55.526Z,4.15
2023-03-23T12:09:11.984Z,4.65
2023-03-23T12:12:30.815Z,6.55
2023-03-23T12:15:41.088Z,4.97
2023-03-23T12:18:52.790Z,7.22
2023-03-23T12:22:03.701Z,6.55
2023-03-23T12:25:21.808Z,5.90
2023-03-23T12:28:33.985Z,5.68
2023-03-23T12:31:42.598Z,5.30
2023-03-23T12:34:51.358Z,7.45
2023-03-23T12:38:02.361Z,5.72
2023-03-23T12:41:15.522Z,7.18
2023-03-23T12:47:45.607Z,4.15
2023-03-23T12:50:54.175Z,5.50
2023-03-23T12:54:03.654Z,5.22
2023-03-23T12:57:13.560Z,5.22
2023-03-23T13:00:23.807Z,6.38
2023-03-23T13:03:34.257Z,4.32
2023-03-23T13:06:45.560Z,4.63
2023-03-23T13:09:53.152Z,6.68
2023-03-23T13:13:03.266Z,5.85
2023-03-23T13:16:14.751Z,5.85
2023-03-23T13:19:30.873Z,4.75
2023-03-23T13:22:39.736Z,4.32
2023-03-23T13:25:52.523Z,5.65
2023-03-23T13:32:33.657Z,4.05
2023-03-23T13:35:42.108Z,6.93
2023-03-23T13:38:52.242Z,4.00
2023-03-23T13:42:06.249Z,6.07
2023-03-23T13:45:23.016Z,6.28
2023-03-23T13:48:32.219Z,4.93
2023-03-23T13:51:40.297Z,7.75
2023-03-23T13:54:52.066Z,5.00
2023-03-23T13:57:59.168Z,4.25
2023-03-23T14:01:13.360Z,4.32
2023-03-23T14:04:22.028Z,4.20
2023-03-23T14:07:30.772Z,4.05
2023-03-23T14:10:37.730Z,4.40
2023-03-23T14:13:47.208Z,5.35
2023-03-23T14:30:23.533Z,7.82
2023-03-23T14:33:31.688Z,4.47
2023-03-23T14:36:44.570Z,8.68
2023-03-23T14:39:51.770Z,5.93
2023-03-23T14:42:59.971Z,7.93
2023-03-23T14:46:13.285Z,8.63
2023-03-23T14:49:19.643Z,6.50
2023-03-23T14:52:27.444Z,4.97
2023-03-23T14:55:41.863Z,5.10
2023-03-23T14:58:50.144Z,7.32
2023-03-23T15:02:03.189Z,6.97
2023-03-23T15:05:12.578Z,7.10
2023-03-23T15:15:34.364Z,2.33
2023-03-23T15:18:53.938Z,3.80
2023-03-23T15:22:13.072Z,2.05
2023-03-23T15:28:55.454Z,5.55
2023-03-23T15:38:56.591Z,2.60
2023-03-23T15:42:09.874Z,2.95
2023-03-23T15:45:36.264Z,3.42
2023-03-23T15:48:51.271Z,2.90
2023-03-23T15:51:58.292Z,2.72
2023-03-23T15:55:03.864Z,1.98
2023-03-23T15:58:14.269Z,2.15
2023-03-23T16:01:22.856Z,3.92
2023-03-23T16:04:28.557Z,2.70
2023-03-23T16:07:34.431Z,4.13
2023-03-23T16:10:42.327Z,2.03
2023-03-23T16:13:52.901Z,2.22
2023-03-23T16:16:59.465Z,3.97
2023-03-23T16:20:05.321Z,3.58
2023-03-23T16:23:11.225Z,5.07
2023-03-23T16:26:19.597Z,4.25
2023-03-23T16:32:44.682Z,3.75
2023-03-23T16:35:57.882Z,3.45
2023-03-23T16:39:10.390Z,2.20
2023-03-23T16:42:17.123Z,3.35
2023-03-23T16:45:26.862Z,3.40
2023-03-23T16:48:32.050Z,5.28
2023-03-23T16:51:37.976Z,4.88
2023-03-23T16:54:43.641Z,3.83
2023-03-23T16:57:50.536Z,5.35
2023-03-23T17:00:59.852Z,6.07
2023-03-23T17:04:07.075Z,4.60
2023-03-23T17:07:14.961Z,5.00
2023-03-23T17:10:21.941Z,5.80
2023-03-23T17:13:28.451Z,5.65
2023-03-23T17:16:41.228Z,4.90
2023-03-23T17:19:51.051Z,4.40
2023-03-23T17:23:00.027Z,3.33
2023-03-23T17:36:43.883Z,4.25
2023-03-23T17:39:53.794Z,4.20
2023-03-23T17:43:00.985Z,4.60
2023-03-23T17:46:07.252Z,6.60
2023-03-23T17:49:12.795Z,4.20
2023-03-23T17:52:19.983Z,5.35
2023-03-23T17:55:30.914Z,3.50
2023-03-23T17:58:37.418Z,4.95
2023-03-23T18:01:48.123Z,4.35
2023-03-23T18:04:58.379Z,5.90
2023-03-23T18:08:06.144Z,5.85
2023-03-23T18:11:22.097Z,5.27
2023-03-23T18:14:39.316Z,7.13
2023-03-23T18:17:53.617Z,3.85
2023-03-23T18:21:05.100Z,8.10
2023-03-23T18:27:49.310Z,4.30
2023-03-23T18:31:02.199Z,6.00
2023-03-23T18:34:19.722Z,7.05
2023-03-23T18:37:27.424Z,5.72
2023-03-23T18:40:36.765Z,4.30
2023-03-23T18:47:14.360Z,4.20
2023-03-23T18:50:24.349Z,5.78
2023-03-23T18:53:33.132Z,6.03
2023-03-23T18:56:45.953Z,5.15
2023-03-23T18:59:52.452Z,5.97
2023-03-23T19:03:06.390Z,5.22
2023-03-23T19:06:19.177Z,6.43
2023-03-23T19:09:28.887Z,6.22
2023-03-23T19:12:40.087Z,4.47
2023-03-23T19:15:51.445Z,5.35
2023-03-23T19:19:00.620Z,5.50
2023-03-23T19:22:10.447Z,4.60
2023-03-23T19:25:17.670Z,5.38
2023-03-23T19:31:39.464Z,4.22
2023-03-23T19:35:03.728Z,5.67
2023-03-23T19:38:17.351Z,3.60
2023-03-23T19:44:34.899Z,4.88
2023-03-23T19:47:41.374Z,4.97
2023-03-23T19:50:57.052Z,4.43
2023-03-23T19:54:03.335Z,8.48
2023-03-23T19:57:19.370Z,5.47
2023-03-23T20:00:25.822Z,4.65
2023-03-23T20:03:31.582Z,5.22
2023-03-23T20:06:45.898Z,6.10
2023-03-23T20:09:54.487Z,4.25
2023-03-23T20:13:01.508Z,4.68
2023-03-23T20:16:11.130Z,4.10
2023-03-23T20:19:16.818Z,5.05
2023-03-23T20:22:29.371Z,5.32
2023-03-23T20:25:38.266Z,5.50
2023-03-23T20:28:48.174Z,6.75
2023-03-23T20:31:54.633Z,5.53
2023-03-23T20:35:06.724Z,5.60
2023-03-23T20:38:23.147Z,5.57
2023-03-23T20:41:33.187Z,6.32
2023-03-23T20:44:42.753Z,5.18
2023-03-23T20:47:49.660Z,5.68
2023-03-23T20:51:04.442Z,5.10
2023-03-23T20:54:14.658Z,4.97
2023-03-23T20:57:21.383Z,3.95
2023-03-23T21:00:29.800Z,5.32
2023-03-23T21:03:40.039Z,5.45
2023-03-23T21:06:49.419Z,3.90
2023-03-23T21:10:02.100Z,7.53
2023-03-23T21:13:11.889Z,3.42
2023-03-23T21:16:21.826Z,4.07
2023-03-23T21:19:29.648Z,5.47
2023-03-23T21:22:38.171Z,4.32
2023-03-23T21:25:48.106Z,7.50
2023-03-23T21:28:55.336Z,5.65
2023-03-23T21:32:08.243Z,5.70
2023-03-23T21:35:18.536Z,2.67
2023-03-23T21:38:26.796Z,5.57
2023-03-23T21:41:41.950Z,5.28
2023-03-23T21:44:49.035Z,6.20
2023-03-23T21:48:01.293Z,4.88
2023-03-23T21:51:12.067Z,3.50
2023-03-23T21:54:17.972Z,5.10
2023-03-23T21:57:26.912Z,5.43
2023-03-23T22:00:34.354Z,5.50
2023-03-23T22:03:41.829Z,4.45
2023-03-23T22:06:48.989Z,6.50
2023-03-23T22:09:55.858Z,4.95
2023-03-23T22:13:07.694Z,5.65
2023-03-23T22:16:15.129Z,7.40
2023-03-23T22:19:22.520Z,5.30
2023-03-23T22:22:40.136Z,12.07
2023-03-23T22:25:50.534Z,5.57
2023-03-23T22:28:59.218Z,7.93
2023-03-23T22:32:05.076Z,5.32
2023-03-23T22:35:13.318Z,6.32
2023-03-23T22:38:19.167Z,7.20
2023-03-23T22:41:31.419Z,7.30
2023-03-23T22:44:41.712Z,4.88
2023-03-23T22:47:46.981Z,6.97
2023-03-23T22:50:54.863Z,7.25
2023-03-23T22:54:00.366Z,6.18
2023-03-23T22:57:14.248Z,11.18
2023-03-23T23:00:31.501Z,8.82
2023-03-23T23:03:41.176Z,8.10
2023-03-23T23:06:47.254Z,10.15
2023-03-23T23:09:53.601Z,10.02
2023-03-23T23:13:14.990Z,7.35
2023-03-23T23:16:26.563Z,8.05
2023-03-23T23:19:32.742Z,7.40
2023-03-23T23:22:39.722Z,10.60
2023-03-23T23:25:46.810Z,7.82
2023-03-23T23:28:56.797Z,8.93
2023-03-23T23:32:05.426Z,9.50
2023-03-23T23:35:11.586Z,9.88
2023-03-23T23:38:18.561Z,11.57
2023-03-23T23:41:26.322Z,8.85
2023-03-23T23:44:33.387Z,11.40
2023-03-23T23:47:44.168Z,10.75
2023-03-23T23:54:11.538Z,11.02
2023-03-23T23:57:19.565Z,10.60
